sensor_id;sensor_type;location;lat;lon;timestamp;temperature;humidity
21169;DHT22;10742;51.816;8.662;2022-07-29T00:02:36;23.80;49.80
21169;DHT22;10742;51.816;8.662;2022-07-29T00:05:58;23.70;49.70
21169;DHT22;10742;51.816;8.662;2022-07-29T00:09:19;23.70;49.90
21169;DHT22;10742;51.816;8.662;2022-07-29T00:12:41;23.70;49.90
21169;DHT22;10742;51.816;8.662;2022-07-29T00:16:02;23.60;49.80
21169;DHT22;10742;51.816;8.662;2022-07-29T00:19:23;23.60;49.90
21169;DHT22;10742;51.816;8.662;2022-07-29T00:22:45;23.60;49.90
21169;DHT22;10742;51.816;8.662;2022-07-29T00:26:06;23.60;50.00
21169;DHT22;10742;51.816;8.662;2022-07-29T00:29:27;23.60;50.00
21169;DHT22;10742;51.816;8.662;2022-07-29T00:32:53;23.60;50.00
21169;DHT22;10742;51.816;8.662;2022-07-29T00:36:14;23.60;49.90
21169;DHT22;10742;51.816;8.662;2022-07-29T00:39:36;23.60;50.00
21169;DHT22;10742;51.816;8.662;2022-07-29T00:42:57;23.60;50.20
21169;DHT22;10742;51.816;8.662;2022-07-29T00:46:18;23.60;50.20
21169;DHT22;10742;51.816;8.662;2022-07-29T00:49:41;23.60;50.20
21169;DHT22;10742;51.816;8.662;2022-07-29T00:53:03;23.60;50.10
21169;DHT22;10742;51.816;8.662;2022-07-29T00:56:25;23.50;50.00
21169;DHT22;10742;51.816;8.662;2022-07-29T00:59:46;23.50;50.10
21169;DHT22;10742;51.816;8.662;2022-07-29T01:03:08;23.50;50.20
21169;DHT22;10742;51.816;8.662;2022-07-29T01:06:30;23.50;50.30
21169;DHT22;10742;51.816;8.662;2022-07-29T01:09:51;23.50;50.20
21169;DHT22;10742;51.816;8.662;2022-07-29T01:13:15;23.50;50.20
21169;DHT22;10742;51.816;8.662;2022-07-29T01:16:52;23.40;50.10
21169;DHT22;10742;51.816;8.662;2022-07-29T01:23:59;23.40;50.20
21169;DHT22;10742;51.816;8.662;2022-07-29T01:27:44;23.40;50.20
21169;DHT22;10742;51.816;8.662;2022-07-29T01:31:10;23.40;50.40
21169;DHT22;10742;51.816;8.662;2022-07-29T01:34:45;23.40;50.20
21169;DHT22;10742;51.816;8.662;2022-07-29T01:38:13;23.30;50.20
21169;DHT22;10742;51.816;8.662;2022-07-29T01:42:00;23.30;50.30
21169;DHT22;10742;51.816;8.662;2022-07-29T01:45:43;23.30;50.50
21169;DHT22;10742;51.816;8.662;2022-07-29T01:49:10;23.30;50.50
21169;DHT22;10742;51.816;8.662;2022-07-29T01:52:54;23.30;50.40
21169;DHT22;10742;51.816;8.662;2022-07-29T01:56:18;23.30;50.50
21169;DHT22;10742;51.816;8.662;2022-07-29T01:59:41;23.30;50.40
21169;DHT22;10742;51.816;8.662;2022-07-29T02:03:09;23.30;50.40
21169;DHT22;10742;51.816;8.662;2022-07-29T02:06:32;23.30;50.50
21169;DHT22;10742;51.816;8.662;2022-07-29T02:09:55;23.30;50.40
21169;DHT22;10742;51.816;8.662;2022-07-29T02:13:18;23.30;50.50
21169;DHT22;10742;51.816;8.662;2022-07-29T02:16:42;23.30;50.60
21169;DHT22;10742;51.816;8.662;2022-07-29T02:20:05;23.30;50.70
21169;DHT22;10742;51.816;8.662;2022-07-29T02:23:26;23.30;50.70
21169;DHT22;10742;51.816;8.662;2022-07-29T02:26:50;23.30;50.70
21169;DHT22;10742;51.816;8.662;2022-07-29T02:30:13;23.30;50.70
21169;DHT22;10742;51.816;8.662;2022-07-29T02:33:35;23.30;50.80
21169;DHT22;10742;51.816;8.662;2022-07-29T02:36:56;23.20;50.90
21169;DHT22;10742;51.816;8.662;2022-07-29T02:40:18;23.20;50.80
21169;DHT22;10742;51.816;8.662;2022-07-29T02:43:40;23.30;50.80
21169;DHT22;10742;51.816;8.662;2022-07-29T02:50:45;23.20;50.90
21169;DHT22;10742;51.816;8.662;2022-07-29T02:54:14;23.30;51.00
21169;DHT22;10742;51.816;8.662;2022-07-29T02:58:01;23.20;51.00
21169;DHT22;10742;51.816;8.662;2022-07-29T03:01:24;23.20;51.00
21169;DHT22;10742;51.816;8.662;2022-07-29T03:04:46;23.20;51.00
21169;DHT22;10742;51.816;8.662;2022-07-29T03:08:11;23.20;51.00
21169;DHT22;10742;51.816;8.662;2022-07-29T03:11:34;23.10;51.00
21169;DHT22;10742;51.816;8.662;2022-07-29T03:14:56;23.10;51.20
21169;DHT22;10742;51.816;8.662;2022-07-29T03:18:18;23.10;51.20
21169;DHT22;10742;51.816;8.662;2022-07-29T03:21:39;23.10;51.20
21169;DHT22;10742;51.816;8.662;2022-07-29T03:25:08;23.10;51.40
21169;DHT22;10742;51.816;8.662;2022-07-29T03:28:30;23.10;51.50
21169;DHT22;10742;51.816;8.662;2022-07-29T03:31:51;23.10;51.40
21169;DHT22;10742;51.816;8.662;2022-07-29T03:35:13;23.10;51.70
21169;DHT22;10742;51.816;8.662;2022-07-29T03:38:35;23.10;51.50
21169;DHT22;10742;51.816;8.662;2022-07-29T03:41:58;23.10;51.50
21169;DHT22;10742;51.816;8.662;2022-07-29T03:45:21;23.00;51.60
21169;DHT22;10742;51.816;8.662;2022-07-29T03:48:46;23.00;51.60
21169;DHT22;10742;51.816;8.662;2022-07-29T03:52:09;23.00;51.70
21169;DHT22;10742;51.816;8.662;2022-07-29T03:55:45;23.00;51.60
21169;DHT22;10742;51.816;8.662;2022-07-29T03:59:08;23.00;51.80
21169;DHT22;10742;51.816;8.662;2022-07-29T04:02:31;23.00;51.70
21169;DHT22;10742;51.816;8.662;2022-07-29T04:06:04;23.00;51.70
21169;DHT22;10742;51.816;8.662;2022-07-29T04:09:28;23.00;51.80
21169;DHT22;10742;51.816;8.662;2022-07-29T04:12:50;23.00;51.70
21169;DHT22;10742;51.816;8.662;2022-07-29T04:16:11;22.90;51.70
21169;DHT22;10742;51.816;8.662;2022-07-29T04:19:33;22.90;51.80
21169;DHT22;10742;51.816;8.662;2022-07-29T04:22:54;22.90;52.00
21169;DHT22;10742;51.816;8.662;2022-07-29T04:26:17;22.90;52.10
21169;DHT22;10742;51.816;8.662;2022-07-29T04:29:38;22.90;52.10
21169;DHT22;10742;51.816;8.662;2022-07-29T04:33:01;22.90;52.10
21169;DHT22;10742;51.816;8.662;2022-07-29T04:36:23;22.90;52.10
21169;DHT22;10742;51.816;8.662;2022-07-29T04:39:44;22.90;52.20
21169;DHT22;10742;51.816;8.662;2022-07-29T04:43:05;22.80;52.20
21169;DHT22;10742;51.816;8.662;2022-07-29T04:46:27;22.90;52.30
21169;DHT22;10742;51.816;8.662;2022-07-29T04:49:48;22.90;52.40
21169;DHT22;10742;51.816;8.662;2022-07-29T04:53:10;22.80;52.40
21169;DHT22;10742;51.816;8.662;2022-07-29T04:56:31;22.90;52.40
21169;DHT22;10742;51.816;8.662;2022-07-29T04:59:53;22.90;52.40
21169;DHT22;10742;51.816;8.662;2022-07-29T05:03:14;22.90;52.50
21169;DHT22;10742;51.816;8.662;2022-07-29T05:06:35;22.90;52.50
21169;DHT22;10742;51.816;8.662;2022-07-29T05:09:56;22.90;52.50
21169;DHT22;10742;51.816;8.662;2022-07-29T05:13:18;22.90;52.50
21169;DHT22;10742;51.816;8.662;2022-07-29T05:16:39;22.90;52.70
21169;DHT22;10742;51.816;8.662;2022-07-29T05:20:01;22.90;52.60
21169;DHT22;10742;51.816;8.662;2022-07-29T05:23:23;23.00;52.70
21169;DHT22;10742;51.816;8.662;2022-07-29T05:26:44;23.00;52.70
21169;DHT22;10742;51.816;8.662;2022-07-29T05:30:06;23.00;52.70
21169;DHT22;10742;51.816;8.662;2022-07-29T05:33:27;23.00;52.70
21169;DHT22;10742;51.816;8.662;2022-07-29T05:36:49;23.00;52.80
21169;DHT22;10742;51.816;8.662;2022-07-29T05:40:10;23.10;52.80
21169;DHT22;10742;51.816;8.662;2022-07-29T05:43:32;23.10;52.80
21169;DHT22;10742;51.816;8.662;2022-07-29T05:46:54;23.10;52.80
21169;DHT22;10742;51.816;8.662;2022-07-29T05:50:15;23.20;52.90
21169;DHT22;10742;51.816;8.662;2022-07-29T05:53:37;23.30;53.60
21169;DHT22;10742;51.816;8.662;2022-07-29T05:56:58;23.30;52.80
21169;DHT22;10742;51.816;8.662;2022-07-29T06:00:19;23.30;52.80
21169;DHT22;10742;51.816;8.662;2022-07-29T06:03:41;23.40;52.80
21169;DHT22;10742;51.816;8.662;2022-07-29T06:07:02;23.40;52.70
21169;DHT22;10742;51.816;8.662;2022-07-29T06:10:24;23.40;52.80
21169;DHT22;10742;51.816;8.662;2022-07-29T06:13:45;23.40;52.80
21169;DHT22;10742;51.816;8.662;2022-07-29T06:17:06;23.50;52.70
21169;DHT22;10742;51.816;8.662;2022-07-29T06:20:29;23.50;52.80
21169;DHT22;10742;51.816;8.662;2022-07-29T06:23:51;23.50;52.70
21169;DHT22;10742;51.816;8.662;2022-07-29T06:27:13;23.60;52.80
21169;DHT22;10742;51.816;8.662;2022-07-29T06:30:34;23.70;52.80
21169;DHT22;10742;51.816;8.662;2022-07-29T06:33:56;23.70;52.70
21169;DHT22;10742;51.816;8.662;2022-07-29T06:37:17;23.70;52.70
21169;DHT22;10742;51.816;8.662;2022-07-29T06:40:43;23.80;52.70
21169;DHT22;10742;51.816;8.662;2022-07-29T06:44:42;23.90;52.70
21169;DHT22;10742;51.816;8.662;2022-07-29T06:48:04;24.00;52.70
21169;DHT22;10742;51.816;8.662;2022-07-29T06:51:25;24.00;52.60
21169;DHT22;10742;51.816;8.662;2022-07-29T06:54:48;24.10;52.50
21169;DHT22;10742;51.816;8.662;2022-07-29T06:58:10;24.20;52.50
21169;DHT22;10742;51.816;8.662;2022-07-29T07:01:32;24.20;52.50
21169;DHT22;10742;51.816;8.662;2022-07-29T07:04:53;24.30;52.60
21169;DHT22;10742;51.816;8.662;2022-07-29T07:08:15;24.30;52.60
21169;DHT22;10742;51.816;8.662;2022-07-29T07:11:37;24.40;52.70
21169;DHT22;10742;51.816;8.662;2022-07-29T07:14:58;24.50;52.60
21169;DHT22;10742;51.816;8.662;2022-07-29T07:18:20;24.70;52.80
21169;DHT22;10742;51.816;8.662;2022-07-29T07:21:41;24.90;52.70
21169;DHT22;10742;51.816;8.662;2022-07-29T07:25:02;25.20;52.90
21169;DHT22;10742;51.816;8.662;2022-07-29T07:28:24;25.50;53.20
21169;DHT22;10742;51.816;8.662;2022-07-29T07:31:46;25.80;52.50
21169;DHT22;10742;51.816;8.662;2022-07-29T07:35:08;26.10;52.10
21169;DHT22;10742;51.816;8.662;2022-07-29T07:38:30;26.30;51.80
21169;DHT22;10742;51.816;8.662;2022-07-29T07:41:51;26.60;51.20
21169;DHT22;10742;51.816;8.662;2022-07-29T07:45:13;26.80;51.10
21169;DHT22;10742;51.816;8.662;2022-07-29T07:48:34;27.00;50.80
21169;DHT22;10742;51.816;8.662;2022-07-29T07:51:56;27.20;50.70
21169;DHT22;10742;51.816;8.662;2022-07-29T07:55:18;27.20;50.70
21169;DHT22;10742;51.816;8.662;2022-07-29T07:58:40;27.40;50.70
21169;DHT22;10742;51.816;8.662;2022-07-29T08:02:01;27.50;50.20
21169;DHT22;10742;51.816;8.662;2022-07-29T08:05:23;27.60;50.10
21169;DHT22;10742;51.816;8.662;2022-07-29T08:08:44;27.60;49.70
21169;DHT22;10742;51.816;8.662;2022-07-29T08:12:06;27.60;49.70
21169;DHT22;10742;51.816;8.662;2022-07-29T08:15:27;27.60;49.70
21169;DHT22;10742;51.816;8.662;2022-07-29T08:18:48;27.70;49.70
21169;DHT22;10742;51.816;8.662;2022-07-29T08:22:09;27.70;49.70
21169;DHT22;10742;51.816;8.662;2022-07-29T08:25:31;27.70;49.30
21169;DHT22;10742;51.816;8.662;2022-07-29T08:28:52;27.80;49.00
21169;DHT22;10742;51.816;8.662;2022-07-29T08:32:14;27.80;48.90
21169;DHT22;10742;51.816;8.662;2022-07-29T08:35:42;27.70;48.80
21169;DHT22;10742;51.816;8.662;2022-07-29T08:39:03;27.70;48.60
21169;DHT22;10742;51.816;8.662;2022-07-29T08:42:24;27.70;48.70
21169;DHT22;10742;51.816;8.662;2022-07-29T08:45:48;27.60;48.90
21169;DHT22;10742;51.816;8.662;2022-07-29T08:49:10;27.60;48.80
21169;DHT22;10742;51.816;8.662;2022-07-29T08:52:33;27.60;48.90
21169;DHT22;10742;51.816;8.662;2022-07-29T08:55:55;27.50;48.70
21169;DHT22;10742;51.816;8.662;2022-07-29T08:59:20;27.50;48.70
21169;DHT22;10742;51.816;8.662;2022-07-29T09:02:45;27.30;48.70
21169;DHT22;10742;51.816;8.662;2022-07-29T09:06:08;27.10;48.80
21169;DHT22;10742;51.816;8.662;2022-07-29T09:09:29;26.90;48.80
21169;DHT22;10742;51.816;8.662;2022-07-29T09:12:51;26.70;48.80
21169;DHT22;10742;51.816;8.662;2022-07-29T09:16:13;26.50;49.00
21169;DHT22;10742;51.816;8.662;2022-07-29T09:19:42;26.30;49.30
21169;DHT22;10742;51.816;8.662;2022-07-29T09:23:08;26.20;49.60
21169;DHT22;10742;51.816;8.662;2022-07-29T09:26:30;26.20;49.80
21169;DHT22;10742;51.816;8.662;2022-07-29T09:29:59;26.10;50.10
21169;DHT22;10742;51.816;8.662;2022-07-29T09:33:22;26.20;50.50
21169;DHT22;10742;51.816;8.662;2022-07-29T09:36:46;26.20;50.40
21169;DHT22;10742;51.816;8.662;2022-07-29T09:40:19;26.30;50.20
21169;DHT22;10742;51.816;8.662;2022-07-29T09:43:54;26.40;50.10
21169;DHT22;10742;51.816;8.662;2022-07-29T09:47:17;26.50;50.10
21169;DHT22;10742;51.816;8.662;2022-07-29T09:50:40;26.60;50.20
21169;DHT22;10742;51.816;8.662;2022-07-29T09:54:02;26.70;50.20
21169;DHT22;10742;51.816;8.662;2022-07-29T09:57:41;26.80;50.00
21169;DHT22;10742;51.816;8.662;2022-07-29T10:01:03;26.90;49.90
21169;DHT22;10742;51.816;8.662;2022-07-29T10:04:37;27.00;49.90
21169;DHT22;10742;51.816;8.662;2022-07-29T10:07:58;26.90;49.80
21169;DHT22;10742;51.816;8.662;2022-07-29T10:11:20;26.90;49.90
21169;DHT22;10742;51.816;8.662;2022-07-29T10:14:42;27.00;50.00
21169;DHT22;10742;51.816;8.662;2022-07-29T10:18:03;27.10;50.00
21169;DHT22;10742;51.816;8.662;2022-07-29T10:21:28;27.20;50.00
21169;DHT22;10742;51.816;8.662;2022-07-29T10:24:50;27.20;50.40
21169;DHT22;10742;51.816;8.662;2022-07-29T10:28:12;27.20;50.30
21169;DHT22;10742;51.816;8.662;2022-07-29T10:31:48;27.30;50.20
21169;DHT22;10742;51.816;8.662;2022-07-29T10:42:41;27.70;49.10
21169;DHT22;10742;51.816;8.662;2022-07-29T10:46:04;27.70;49.30
21169;DHT22;10742;51.816;8.662;2022-07-29T10:49:26;27.80;49.10
21169;DHT22;10742;51.816;8.662;2022-07-29T10:56:29;28.00;49.00
21169;DHT22;10742;51.816;8.662;2022-07-29T11:07:06;28.20;48.80
21169;DHT22;10742;51.816;8.662;2022-07-29T11:10:29;28.30;49.10
21169;DHT22;10742;51.816;8.662;2022-07-29T11:13:51;28.40;48.80
21169;DHT22;10742;51.816;8.662;2022-07-29T11:17:14;28.50;49.00
21169;DHT22;10742;51.816;8.662;2022-07-29T11:20:47;28.60;48.80
21169;DHT22;10742;51.816;8.662;2022-07-29T11:24:14;28.60;48.70
21169;DHT22;10742;51.816;8.662;2022-07-29T11:27:35;28.60;48.50
21169;DHT22;10742;51.816;8.662;2022-07-29T11:31:01;28.60;48.60
21169;DHT22;10742;51.816;8.662;2022-07-29T11:34:30;28.60;48.90
21169;DHT22;10742;51.816;8.662;2022-07-29T11:38:27;28.60;49.00
21169;DHT22;10742;51.816;8.662;2022-07-29T11:41:49;28.70;49.00
21169;DHT22;10742;51.816;8.662;2022-07-29T11:45:13;28.80;48.80
21169;DHT22;10742;51.816;8.662;2022-07-29T11:48:34;28.70;48.50
21169;DHT22;10742;51.816;8.662;2022-07-29T11:51:57;28.80;48.60
21169;DHT22;10742;51.816;8.662;2022-07-29T11:55:20;28.80;48.80
21169;DHT22;10742;51.816;8.662;2022-07-29T11:58:45;28.90;48.70
21169;DHT22;10742;51.816;8.662;2022-07-29T12:02:06;29.00;48.70
21169;DHT22;10742;51.816;8.662;2022-07-29T12:05:45;29.20;48.50
21169;DHT22;10742;51.816;8.662;2022-07-29T12:09:10;29.20;48.50
21169;DHT22;10742;51.816;8.662;2022-07-29T12:12:31;29.30;48.40
21169;DHT22;10742;51.816;8.662;2022-07-29T12:15:57;29.40;48.90
21169;DHT22;10742;51.816;8.662;2022-07-29T12:19:19;29.60;48.80
21169;DHT22;10742;51.816;8.662;2022-07-29T12:22:41;29.90;49.00
21169;DHT22;10742;51.816;8.662;2022-07-29T12:26:06;30.10;48.80
21169;DHT22;10742;51.816;8.662;2022-07-29T12:29:27;30.30;47.90
21169;DHT22;10742;51.816;8.662;2022-07-29T12:32:49;30.50;47.40
21169;DHT22;10742;51.816;8.662;2022-07-29T12:36:10;30.60;47.20
21169;DHT22;10742;51.816;8.662;2022-07-29T12:39:37;30.70;47.00
21169;DHT22;10742;51.816;8.662;2022-07-29T12:43:10;30.70;47.00
21169;DHT22;10742;51.816;8.662;2022-07-29T12:46:32;30.80;46.70
21169;DHT22;10742;51.816;8.662;2022-07-29T12:50:14;31.00;46.90
21169;DHT22;10742;51.816;8.662;2022-07-29T12:53:39;31.00;45.90
21169;DHT22;10742;51.816;8.662;2022-07-29T12:57:01;31.20;46.40
21169;DHT22;10742;51.816;8.662;2022-07-29T13:00:23;31.30;46.00
21169;DHT22;10742;51.816;8.662;2022-07-29T13:03:58;31.30;45.90
21169;DHT22;10742;51.816;8.662;2022-07-29T13:07:28;31.40;45.40
21169;DHT22;10742;51.816;8.662;2022-07-29T13:10:50;31.40;45.40
21169;DHT22;10742;51.816;8.662;2022-07-29T13:14:14;31.50;45.30
21169;DHT22;10742;51.816;8.662;2022-07-29T13:17:50;31.50;44.70
21169;DHT22;10742;51.816;8.662;2022-07-29T13:21:13;31.50;44.90
21169;DHT22;10742;51.816;8.662;2022-07-29T13:24:49;31.50;45.00
21169;DHT22;10742;51.816;8.662;2022-07-29T13:28:10;31.60;44.80
21169;DHT22;10742;51.816;8.662;2022-07-29T13:31:32;31.70;45.10
21169;DHT22;10742;51.816;8.662;2022-07-29T13:34:55;31.80;44.80
21169;DHT22;10742;51.816;8.662;2022-07-29T13:38:16;31.90;45.10
21169;DHT22;10742;51.816;8.662;2022-07-29T13:41:37;31.90;45.20
21169;DHT22;10742;51.816;8.662;2022-07-29T13:45:00;32.00;45.20
21169;DHT22;10742;51.816;8.662;2022-07-29T13:48:21;32.10;45.10
21169;DHT22;10742;51.816;8.662;2022-07-29T13:51:43;32.20;44.60
21169;DHT22;10742;51.816;8.662;2022-07-29T13:55:05;32.30;44.70
21169;DHT22;10742;51.816;8.662;2022-07-29T13:58:26;32.40;44.30
21169;DHT22;10742;51.816;8.662;2022-07-29T14:01:48;32.50;44.20
21169;DHT22;10742;51.816;8.662;2022-07-29T14:05:11;32.50;43.80
21169;DHT22;10742;51.816;8.662;2022-07-29T14:08:33;32.50;43.60
21169;DHT22;10742;51.816;8.662;2022-07-29T14:11:54;32.40;43.60
21169;DHT22;10742;51.816;8.662;2022-07-29T14:15:17;32.30;43.80
21169;DHT22;10742;51.816;8.662;2022-07-29T14:18:41;32.30;43.90
21169;DHT22;10742;51.816;8.662;2022-07-29T14:22:06;32.20;44.20
21169;DHT22;10742;51.816;8.662;2022-07-29T14:25:28;32.20;44.70
21169;DHT22;10742;51.816;8.662;2022-07-29T14:28:49;32.10;44.20
21169;DHT22;10742;51.816;8.662;2022-07-29T14:32:10;32.10;44.50
21169;DHT22;10742;51.816;8.662;2022-07-29T14:35:32;32.00;44.50
21169;DHT22;10742;51.816;8.662;2022-07-29T14:38:53;32.00;44.50
21169;DHT22;10742;51.816;8.662;2022-07-29T14:42:15;31.90;44.60
21169;DHT22;10742;51.816;8.662;2022-07-29T14:45:36;31.80;44.60
21169;DHT22;10742;51.816;8.662;2022-07-29T14:48:57;31.60;44.60
21169;DHT22;10742;51.816;8.662;2022-07-29T14:52:19;31.50;44.70
21169;DHT22;10742;51.816;8.662;2022-07-29T14:55:40;31.50;44.80
21169;DHT22;10742;51.816;8.662;2022-07-29T14:59:02;31.40;45.10
21169;DHT22;10742;51.816;8.662;2022-07-29T15:02:24;31.30;45.30
21169;DHT22;10742;51.816;8.662;2022-07-29T15:05:55;31.30;45.30
21169;DHT22;10742;51.816;8.662;2022-07-29T15:09:17;31.30;45.30
21169;DHT22;10742;51.816;8.662;2022-07-29T15:12:39;31.30;45.20
21169;DHT22;10742;51.816;8.662;2022-07-29T15:16:00;31.20;45.20
21169;DHT22;10742;51.816;8.662;2022-07-29T15:19:21;31.20;45.20
21169;DHT22;10742;51.816;8.662;2022-07-29T15:22:42;31.10;45.30
21169;DHT22;10742;51.816;8.662;2022-07-29T15:26:04;31.00;45.30
21169;DHT22;10742;51.816;8.662;2022-07-29T15:29:25;30.90;45.50
21169;DHT22;10742;51.816;8.662;2022-07-29T15:32:47;30.80;45.60
21169;DHT22;10742;51.816;8.662;2022-07-29T15:36:08;30.80;45.60
21169;DHT22;10742;51.816;8.662;2022-07-29T15:39:29;30.60;45.40
21169;DHT22;10742;51.816;8.662;2022-07-29T15:42:51;30.50;45.40
21169;DHT22;10742;51.816;8.662;2022-07-29T15:46:13;30.30;45.50
21169;DHT22;10742;51.816;8.662;2022-07-29T15:49:53;30.20;45.80
21169;DHT22;10742;51.816;8.662;2022-07-29T15:53:15;30.20;46.10
21169;DHT22;10742;51.816;8.662;2022-07-29T15:56:36;30.10;46.30
21169;DHT22;10742;51.816;8.662;2022-07-29T15:59:57;30.10;46.30
21169;DHT22;10742;51.816;8.662;2022-07-29T16:03:18;30.00;46.30
21169;DHT22;10742;51.816;8.662;2022-07-29T16:06:41;29.90;46.50
21169;DHT22;10742;51.816;8.662;2022-07-29T16:10:03;29.80;46.50
21169;DHT22;10742;51.816;8.662;2022-07-29T16:13:24;29.80;46.80
21169;DHT22;10742;51.816;8.662;2022-07-29T16:16:45;29.70;46.90
21169;DHT22;10742;51.816;8.662;2022-07-29T16:20:07;29.70;46.80
21169;DHT22;10742;51.816;8.662;2022-07-29T16:23:28;29.60;46.70
21169;DHT22;10742;51.816;8.662;2022-07-29T16:26:50;29.60;46.60
21169;DHT22;10742;51.816;8.662;2022-07-29T16:30:13;29.50;46.60
21169;DHT22;10742;51.816;8.662;2022-07-29T16:33:34;29.50;46.80
21169;DHT22;10742;51.816;8.662;2022-07-29T16:36:56;29.30;46.70
21169;DHT22;10742;51.816;8.662;2022-07-29T16:40:17;29.20;46.80
21169;DHT22;10742;51.816;8.662;2022-07-29T16:43:39;29.10;47.10
21169;DHT22;10742;51.816;8.662;2022-07-29T16:47:00;29.00;47.20
21169;DHT22;10742;51.816;8.662;2022-07-29T16:50:22;28.90;47.50
21169;DHT22;10742;51.816;8.662;2022-07-29T16:53:44;28.80;47.60
21169;DHT22;10742;51.816;8.662;2022-07-29T16:57:06;28.80;47.80
21169;DHT22;10742;51.816;8.662;2022-07-29T17:00:27;28.70;47.80
21169;DHT22;10742;51.816;8.662;2022-07-29T17:03:49;28.60;47.80
21169;DHT22;10742;51.816;8.662;2022-07-29T17:07:28;28.50;47.90
21169;DHT22;10742;51.816;8.662;2022-07-29T17:10:50;28.50;48.00
21169;DHT22;10742;51.816;8.662;2022-07-29T17:14:11;28.40;48.00
21169;DHT22;10742;51.816;8.662;2022-07-29T17:17:32;28.30;48.20
21169;DHT22;10742;51.816;8.662;2022-07-29T17:20:54;28.20;48.40
21169;DHT22;10742;51.816;8.662;2022-07-29T17:24:16;28.20;48.60
21169;DHT22;10742;51.816;8.662;2022-07-29T17:27:37;28.00;48.70
21169;DHT22;10742;51.816;8.662;2022-07-29T17:30:58;28.00;48.90
21169;DHT22;10742;51.816;8.662;2022-07-29T17:34:19;27.90;48.80
21169;DHT22;10742;51.816;8.662;2022-07-29T17:37:41;27.90;49.00
21169;DHT22;10742;51.816;8.662;2022-07-29T17:41:03;27.90;49.10
21169;DHT22;10742;51.816;8.662;2022-07-29T17:44:24;27.80;49.10
21169;DHT22;10742;51.816;8.662;2022-07-29T17:47:45;27.70;49.20
21169;DHT22;10742;51.816;8.662;2022-07-29T17:51:07;27.70;49.30
21169;DHT22;10742;51.816;8.662;2022-07-29T17:54:28;27.70;49.40
21169;DHT22;10742;51.816;8.662;2022-07-29T17:57:49;27.60;49.50
21169;DHT22;10742;51.816;8.662;2022-07-29T18:01:11;27.50;49.50
21169;DHT22;10742;51.816;8.662;2022-07-29T18:04:33;27.60;49.60
21169;DHT22;10742;51.816;8.662;2022-07-29T18:07:54;27.50;49.60
21169;DHT22;10742;51.816;8.662;2022-07-29T18:11:16;27.50;49.70
21169;DHT22;10742;51.816;8.662;2022-07-29T18:14:37;27.50;49.80
21169;DHT22;10742;51.816;8.662;2022-07-29T18:17:59;27.40;49.90
21169;DHT22;10742;51.816;8.662;2022-07-29T18:21:20;27.40;50.00
21169;DHT22;10742;51.816;8.662;2022-07-29T18:24:42;27.40;50.20
21169;DHT22;10742;51.816;8.662;2022-07-29T18:28:04;27.30;50.40
21169;DHT22;10742;51.816;8.662;2022-07-29T18:31:25;27.30;50.60
21169;DHT22;10742;51.816;8.662;2022-07-29T18:34:48;27.30;50.80
21169;DHT22;10742;51.816;8.662;2022-07-29T18:38:09;27.30;51.00
21169;DHT22;10742;51.816;8.662;2022-07-29T18:41:31;27.20;51.40
21169;DHT22;10742;51.816;8.662;2022-07-29T18:44:53;27.10;52.10
21169;DHT22;10742;51.816;8.662;2022-07-29T18:48:15;26.90;52.80
21169;DHT22;10742;51.816;8.662;2022-07-29T18:51:36;26.70;53.60
21169;DHT22;10742;51.816;8.662;2022-07-29T18:54:59;26.50;54.40
21169;DHT22;10742;51.816;8.662;2022-07-29T18:58:20;26.30;55.40
21169;DHT22;10742;51.816;8.662;2022-07-29T19:01:42;26.10;55.90
21169;DHT22;10742;51.816;8.662;2022-07-29T19:05:06;26.00;56.90
21169;DHT22;10742;51.816;8.662;2022-07-29T19:08:28;25.80;57.70
21169;DHT22;10742;51.816;8.662;2022-07-29T19:11:49;25.60;58.10
21169;DHT22;10742;51.816;8.662;2022-07-29T19:15:13;25.40;58.70
21169;DHT22;10742;51.816;8.662;2022-07-29T19:18:34;25.20;59.50
21169;DHT22;10742;51.816;8.662;2022-07-29T19:21:55;25.10;60.20
21169;DHT22;10742;51.816;8.662;2022-07-29T19:25:17;25.00;60.70
21169;DHT22;10742;51.816;8.662;2022-07-29T19:28:39;25.00;61.60
21169;DHT22;10742;51.816;8.662;2022-07-29T19:32:00;25.00;61.90
21169;DHT22;10742;51.816;8.662;2022-07-29T19:35:22;25.10;62.40
21169;DHT22;10742;51.816;8.662;2022-07-29T19:38:51;25.10;62.70
21169;DHT22;10742;51.816;8.662;2022-07-29T19:42:13;25.10;63.20
21169;DHT22;10742;51.816;8.662;2022-07-29T19:45:35;25.10;63.60
21169;DHT22;10742;51.816;8.662;2022-07-29T19:48:56;25.20;64.30
21169;DHT22;10742;51.816;8.662;2022-07-29T19:52:18;25.20;65.00
21169;DHT22;10742;51.816;8.662;2022-07-29T19:55:39;25.20;65.60
21169;DHT22;10742;51.816;8.662;2022-07-29T19:59:02;25.20;66.30
21169;DHT22;10742;51.816;8.662;2022-07-29T20:02:26;25.20;67.20
21169;DHT22;10742;51.816;8.662;2022-07-29T20:05:48;25.20;67.90
21169;DHT22;10742;51.816;8.662;2022-07-29T20:09:12;25.20;68.10
21169;DHT22;10742;51.816;8.662;2022-07-29T20:12:38;25.10;69.00
21169;DHT22;10742;51.816;8.662;2022-07-29T20:16:06;25.10;70.40
21169;DHT22;10742;51.816;8.662;2022-07-29T20:19:29;25.00;70.90
21169;DHT22;10742;51.816;8.662;2022-07-29T20:22:53;25.00;70.60
21169;DHT22;10742;51.816;8.662;2022-07-29T20:26:14;25.00;70.80
21169;DHT22;10742;51.816;8.662;2022-07-29T20:29:37;24.90;70.90
21169;DHT22;10742;51.816;8.662;2022-07-29T20:32:58;24.80;71.10
21169;DHT22;10742;51.816;8.662;2022-07-29T20:36:20;24.80;72.30
21169;DHT22;10742;51.816;8.662;2022-07-29T20:39:41;24.70;71.70
21169;DHT22;10742;51.816;8.662;2022-07-29T20:43:03;24.70;72.30
21169;DHT22;10742;51.816;8.662;2022-07-29T20:46:25;24.60;73.00
21169;DHT22;10742;51.816;8.662;2022-07-29T20:49:47;24.50;73.40
21169;DHT22;10742;51.816;8.662;2022-07-29T20:53:08;24.50;73.60
21169;DHT22;10742;51.816;8.662;2022-07-29T20:56:31;24.40;74.10
21169;DHT22;10742;51.816;8.662;2022-07-29T20:59:54;24.30;74.10
21169;DHT22;10742;51.816;8.662;2022-07-29T21:03:17;24.30;75.20
21169;DHT22;10742;51.816;8.662;2022-07-29T21:06:40;24.20;75.00
21169;DHT22;10742;51.816;8.662;2022-07-29T21:10:03;24.20;75.90
21169;DHT22;10742;51.816;8.662;2022-07-29T21:13:26;24.10;75.40
21169;DHT22;10742;51.816;8.662;2022-07-29T21:16:49;24.00;75.70
21169;DHT22;10742;51.816;8.662;2022-07-29T21:20:16;24.00;76.00
21169;DHT22;10742;51.816;8.662;2022-07-29T21:23:41;23.90;76.60
21169;DHT22;10742;51.816;8.662;2022-07-29T21:27:04;23.90;76.90
21169;DHT22;10742;51.816;8.662;2022-07-29T21:30:45;23.90;77.40
21169;DHT22;10742;51.816;8.662;2022-07-29T21:34:07;23.90;77.70
21169;DHT22;10742;51.816;8.662;2022-07-29T21:37:31;23.90;77.80
21169;DHT22;10742;51.816;8.662;2022-07-29T21:40:55;23.90;78.00
21169;DHT22;10742;51.816;8.662;2022-07-29T21:44:18;23.90;78.30
21169;DHT22;10742;51.816;8.662;2022-07-29T21:47:42;23.90;78.20
21169;DHT22;10742;51.816;8.662;2022-07-29T21:51:05;23.80;78.50